createdAt,value
2022-09-17T00:00:05.905Z,90.80
2022-09-17T00:01:06.020Z,90.80
2022-09-17T00:02:05.942Z,91.51
2022-09-17T00:03:05.904Z,91.72
2022-09-17T00:04:05.851Z,91.41
2022-09-17T00:05:05.837Z,91.31
2022-09-17T00:06:05.826Z,91.41
2022-09-17T00:07:05.819Z,91.51
2022-09-17T00:08:05.800Z,90.89
2022-09-17T00:09:05.800Z,90.80
2022-09-17T00:10:05.780Z,91.20
2022-09-17T00:11:05.759Z,90.89
2022-09-17T00:12:05.753Z,91.31
2022-09-17T00:13:05.741Z,92.03
2022-09-17T00:14:05.724Z,91.93
2022-09-17T00:15:05.724Z,91.93
2022-09-17T00:16:05.728Z,91.20
2022-09-17T00:17:05.809Z,90.89
2022-09-17T00:18:05.674Z,91.41
2022-09-17T00:19:05.683Z,91.41
2022-09-17T00:20:05.649Z,91.41
2022-09-17T00:21:05.634Z,91.04
2022-09-17T00:22:05.620Z,91.51
2022-09-17T00:23:05.615Z,90.63
2022-09-17T00:24:05.595Z,90.42
2022-09-17T00:25:05.586Z,90.53
2022-09-17T00:26:05.569Z,91.04
2022-09-17T00:27:05.559Z,91.04
2022-09-17T00:28:05.545Z,91.86
2022-09-17T00:29:05.532Z,92.07
2022-09-17T00:30:05.518Z,92.48
2022-09-17T00:31:05.595Z,92.99
2022-09-17T00:32:05.493Z,92.17
2022-09-17T00:33:05.606Z,92.58
2022-09-17T00:34:05.471Z,91.35
2022-09-17T00:35:05.458Z,90.63
2022-09-17T00:36:05.444Z,90.83
2022-09-17T00:37:05.431Z,91.25
2022-09-17T00:38:05.418Z,91.86
2022-09-17T00:39:05.406Z,91.25
2022-09-17T00:40:05.471Z,90.73
2022-09-17T00:41:05.383Z,91.04
2022-09-17T00:42:05.371Z,91.35
2022-09-17T00:43:05.359Z,91.66
2022-09-17T00:44:05.342Z,91.35
2022-09-17T00:45:05.331Z,90.83
2022-09-17T00:46:05.345Z,90.73
2022-09-17T00:47:05.302Z,90.63
2022-09-17T00:48:05.290Z,90.83
2022-09-17T00:49:05.399Z,90.42
2022-09-17T00:50:05.264Z,90.22
2022-09-17T00:51:05.255Z,89.50
2022-09-17T00:52:05.239Z,89.50
2022-09-17T00:53:05.226Z,89.40
2022-09-17T00:54:05.217Z,89.50
2022-09-17T00:55:05.200Z,89.95
2022-09-17T00:56:05.188Z,89.81
2022-09-17T00:57:05.174Z,89.54
2022-09-17T00:58:05.165Z,89.91
2022-09-17T00:59:05.159Z,90.42
2022-09-17T01:00:05.140Z,90.22
2022-09-17T01:01:05.150Z,89.81
2022-09-17T01:02:05.170Z,89.64
2022-09-17T01:03:05.102Z,90.06
2022-09-17T01:04:05.082Z,91.14
2022-09-17T01:05:05.205Z,90.22
2022-09-17T01:06:05.060Z,89.91
2022-09-17T01:07:05.046Z,90.01
2022-09-17T01:08:05.033Z,90.12
2022-09-17T01:09:05.027Z,90.42
2022-09-17T01:10:05.005Z,90.63
2022-09-17T01:11:04.997Z,91.45
2022-09-17T01:12:04.984Z,91.55
2022-09-17T01:13:04.973Z,91.14
2022-09-17T01:14:04.956Z,91.45
2022-09-17T01:15:04.969Z,91.76
2022-09-17T01:16:05.028Z,91.25
2022-09-17T01:17:04.919Z,91.25
2022-09-17T01:18:04.913Z,91.04
2022-09-17T01:19:04.896Z,90.32
2022-09-17T01:20:04.897Z,90.53
2022-09-17T01:21:05.000Z,90.73
2022-09-17T01:22:04.859Z,90.47
2022-09-17T01:23:04.845Z,90.78
2022-09-17T01:24:04.831Z,91.08
2022-09-17T01:25:04.823Z,91.49
2022-09-17T01:26:04.808Z,91.08
2022-09-17T01:27:04.795Z,91.49
2022-09-17T01:28:04.782Z,91.60
2022-09-17T01:29:04.764Z,91.70
2022-09-17T01:30:04.755Z,92.01
2022-09-17T01:31:04.803Z,91.70
2022-09-17T01:32:04.728Z,92.11
2022-09-17T01:33:04.717Z,92.21
2022-09-17T01:34:04.700Z,91.80
2022-09-17T01:35:04.690Z,91.60
2022-09-17T01:36:04.672Z,91.49
2022-09-17T01:37:04.787Z,91.39
2022-09-17T01:38:04.651Z,91.70
2022-09-17T01:39:04.641Z,91.19
2022-09-17T01:40:04.673Z,91.08
2022-09-17T01:41:04.618Z,91.29
2022-09-17T01:42:04.599Z,91.60
2022-09-17T01:43:04.589Z,91.60
2022-09-17T01:44:04.570Z,91.39
2022-09-17T01:45:04.558Z,91.60
2022-09-17T01:46:04.546Z,91.19
2022-09-17T01:47:04.532Z,90.98
2022-09-17T01:48:04.520Z,91.08
2022-09-17T01:49:04.513Z,91.08
2022-09-17T01:50:04.495Z,91.91
2022-09-17T01:51:04.481Z,92.11
2022-09-17T01:52:04.474Z,92.11
2022-09-17T01:53:04.585Z,92.11
2022-09-17T01:54:04.443Z,92.01
2022-09-17T01:55:04.429Z,91.29
2022-09-17T01:56:04.417Z,90.88
2022-09-17T01:57:04.404Z,90.88
2022-09-17T01:58:04.391Z,90.78
2022-09-17T01:59:04.386Z,90.67
2022-09-17T02:00:04.368Z,90.88
2022-09-17T02:01:04.399Z,91.19
2022-09-17T02:02:04.382Z,91.19
2022-09-17T02:03:04.333Z,90.57
2022-09-17T02:04:04.316Z,90.57
2022-09-17T02:05:04.304Z,90.26
2022-09-17T02:06:04.289Z,90.57
2022-09-17T02:07:04.273Z,90.47
2022-09-17T02:08:04.268Z,90.51
2022-09-17T02:09:04.368Z,91.08
2022-09-17T02:10:04.243Z,91.13
2022-09-17T02:11:04.226Z,91.19
2022-09-17T02:12:04.209Z,91.29
2022-09-17T02:13:04.199Z,90.09
2022-09-17T02:14:04.185Z,90.72
2022-09-17T02:15:04.172Z,91.08
2022-09-17T02:16:04.196Z,90.92
2022-09-17T02:17:04.157Z,91.29
2022-09-17T02:18:04.132Z,90.78
2022-09-17T02:19:04.120Z,90.57
2022-09-17T02:20:04.110Z,90.78
2022-09-17T02:21:04.094Z,90.88
2022-09-17T02:22:04.083Z,90.98
2022-09-17T02:23:04.072Z,90.47
2022-09-17T02:24:04.059Z,91.19
2022-09-17T02:25:04.163Z,90.67
2022-09-17T02:26:04.027Z,90.67
2022-09-17T02:27:04.018Z,90.88
2022-09-17T02:28:04.008Z,91.08
2022-09-17T02:29:03.990Z,90.78
2022-09-17T02:30:03.976Z,90.67
2022-09-17T02:31:04.067Z,90.36
2022-09-17T02:32:03.961Z,90.41
2022-09-17T02:33:03.950Z,90.51
2022-09-17T02:34:03.919Z,90.41
2022-09-17T02:35:03.909Z,90.72
2022-09-17T02:36:03.895Z,90.41
2022-09-17T02:37:03.887Z,90.51
2022-09-17T02:38:03.874Z,90.61
2022-09-17T02:39:03.858Z,90.92
2022-09-17T02:40:03.906Z,90.81
2022-09-17T02:41:03.964Z,90.41
2022-09-17T02:42:03.821Z,90.51
2022-09-17T02:43:03.808Z,90.30
2022-09-17T02:44:03.795Z,90.09
2022-09-17T02:45:03.800Z,90.30
2022-09-17T02:46:03.770Z,90.72
2022-09-17T02:47:03.751Z,90.92
2022-09-17T02:48:03.744Z,91.23
2022-09-17T02:49:03.734Z,90.92
2022-09-17T02:50:03.722Z,90.72
2022-09-17T02:51:03.705Z,90.92
2022-09-17T02:52:03.695Z,91.02
2022-09-17T02:53:03.677Z,91.13
2022-09-17T02:54:03.666Z,91.53
2022-09-17T02:55:03.657Z,91.85
2022-09-17T02:56:03.641Z,91.74
2022-09-17T02:57:03.752Z,91.33
2022-09-17T02:58:03.617Z,91.33
2022-09-17T02:59:03.605Z,91.23
2022-09-17T03:00:03.591Z,90.92
2022-09-17T03:01:03.637Z,90.92
2022-09-17T03:02:03.643Z,91.13
2022-09-17T03:03:03.554Z,91.23
2022-09-17T03:04:03.541Z,91.53
2022-09-17T03:05:03.525Z,91.74
2022-09-17T03:06:03.513Z,91.13
2022-09-17T03:07:03.500Z,90.92
2022-09-17T03:08:03.479Z,91.23
2022-09-17T03:09:03.470Z,91.02
2022-09-17T03:10:03.460Z,91.02
2022-09-17T03:11:03.448Z,90.96
2022-09-17T03:12:03.444Z,91.27
2022-09-17T03:13:03.544Z,91.27
2022-09-17T03:14:03.409Z,91.06
2022-09-17T03:15:03.394Z,91.38
2022-09-17T03:16:03.514Z,91.58
2022-09-17T03:17:03.372Z,91.38
2022-09-17T03:18:03.352Z,92.10
2022-09-17T03:19:03.345Z,91.68
2022-09-17T03:20:03.326Z,91.47
2022-09-17T03:21:03.316Z,91.58
2022-09-17T03:22:03.306Z,91.89
2022-09-17T03:23:03.300Z,91.89
2022-09-17T03:24:03.286Z,91.89
2022-09-17T03:25:03.269Z,92.40
2022-09-17T03:26:03.264Z,93.18
2022-09-17T03:27:03.243Z,93.90
2022-09-17T03:28:03.228Z,92.36
2022-09-17T03:29:03.332Z,91.95
2022-09-17T03:30:03.201Z,91.85
2022-09-17T03:31:03.249Z,91.95
2022-09-17T03:32:03.178Z,91.95
2022-09-17T03:33:03.195Z,91.89
2022-09-17T03:34:03.153Z,91.89
2022-09-17T03:35:03.146Z,92.10
2022-09-17T03:36:03.128Z,92.10
2022-09-17T03:37:03.110Z,92.10
2022-09-17T03:38:03.097Z,92.20
2022-09-17T03:39:03.080Z,92.61
2022-09-17T03:40:03.184Z,92.61
2022-09-17T03:41:03.061Z,92.30
2022-09-17T03:42:03.044Z,92.40
2022-09-17T03:43:03.028Z,93.02
2022-09-17T03:44:03.136Z,92.92
2022-09-17T03:45:03.127Z,92.71
2022-09-17T03:46:03.046Z,93.23
2022-09-17T03:47:02.976Z,92.77
2022-09-17T03:48:02.965Z,92.77
2022-09-17T03:49:02.955Z,92.77
2022-09-17T03:50:02.935Z,92.46
2022-09-17T03:51:02.932Z,92.46
2022-09-17T03:52:02.922Z,92.92
2022-09-17T03:53:02.905Z,93.02
2022-09-17T03:54:02.887Z,93.29
2022-09-17T03:55:02.877Z,93.59
2022-09-17T03:56:02.865Z,93.70
2022-09-17T03:57:02.868Z,93.70
2022-09-17T03:58:02.837Z,94.21
2022-09-17T03:59:02.825Z,93.12
2022-09-17T04:00:02.813Z,93.43
2022-09-17T04:01:02.919Z,94.05
2022-09-17T04:02:03.115Z,93.64
2022-09-17T04:03:02.875Z,93.64
2022-09-17T04:04:02.768Z,93.23
2022-09-17T04:05:02.746Z,93.54
2022-09-17T04:06:02.734Z,93.84
2022-09-17T04:07:02.729Z,93.74
2022-09-17T04:08:02.707Z,93.84
2022-09-17T04:09:02.691Z,94.15
2022-09-17T04:10:02.682Z,93.84
2022-09-17T04:11:02.666Z,93.95
2022-09-17T04:12:02.660Z,93.12
2022-09-17T04:13:02.640Z,93.74
2022-09-17T04:14:02.637Z,93.02
2022-09-17T04:15:02.616Z,92.50
2022-09-17T04:16:02.677Z,92.82
2022-09-17T04:17:02.713Z,92.61
2022-09-17T04:18:02.581Z,92.61
2022-09-17T04:19:02.573Z,92.40
2022-09-17T04:20:02.550Z,92.30
2022-09-17T04:21:02.535Z,92.65
2022-09-17T04:22:02.531Z,92.76
2022-09-17T04:23:02.517Z,93.06
2022-09-17T04:24:02.500Z,93.68
2022-09-17T04:25:02.481Z,93.68
2022-09-17T04:26:02.474Z,93.37
2022-09-17T04:27:02.460Z,93.68
2022-09-17T04:28:02.450Z,93.79
2022-09-17T04:29:02.443Z,93.68
2022-09-17T04:30:02.432Z,93.48
2022-09-17T04:31:02.469Z,93.68
2022-09-17T04:32:02.401Z,94.09
2022-09-17T04:33:02.504Z,94.20
2022-09-17T04:34:02.367Z,94.09
2022-09-17T04:35:02.357Z,94.09
2022-09-17T04:36:02.341Z,94.30
2022-09-17T04:37:02.336Z,94.30
2022-09-17T04:38:02.319Z,94.60
2022-09-17T04:39:02.311Z,94.65
2022-09-17T04:40:07.038Z,94.76
2022-09-17T04:41:02.275Z,94.65
2022-09-17T04:42:02.265Z,94.85
2022-09-17T04:43:02.256Z,95.06
2022-09-17T04:44:02.241Z,95.27
2022-09-17T04:45:02.224Z,94.85
2022-09-17T04:46:02.215Z,94.92
2022-09-17T04:47:02.202Z,94.55
2022-09-17T04:48:02.191Z,94.76
2022-09-17T04:49:02.295Z,94.45
2022-09-17T04:50:02.167Z,94.34
2022-09-17T04:51:02.147Z,94.45
2022-09-17T04:52:02.139Z,94.65
2022-09-17T04:53:02.146Z,94.85
2022-09-17T04:54:02.109Z,94.65
2022-09-17T04:55:02.109Z,94.65
2022-09-17T04:56:02.099Z,94.65
2022-09-17T04:57:02.069Z,94.45
2022-09-17T04:58:02.062Z,94.34
2022-09-17T04:59:02.049Z,94.55
2022-09-17T05:00:02.037Z,95.06
2022-09-17T05:01:02.092Z,94.65
2022-09-17T05:02:02.066Z,94.34
2022-09-17T05:03:01.995Z,94.65
2022-09-17T05:04:01.982Z,95.43
2022-09-17T05:05:02.094Z,94.92
2022-09-17T05:06:01.962Z,94.71
2022-09-17T05:07:01.947Z,94.92
2022-09-17T05:08:01.934Z,94.60
2022-09-17T05:09:01.922Z,94.81
2022-09-17T05:10:01.909Z,94.71
2022-09-17T05:11:01.898Z,94.76
2022-09-17T05:12:01.891Z,94.92
2022-09-17T05:13:01.871Z,95.33
2022-09-17T05:14:01.862Z,95.64
2022-09-17T05:15:01.847Z,95.43
2022-09-17T05:16:01.886Z,95.64
2022-09-17T05:17:01.819Z,95.53
2022-09-17T05:18:01.807Z,95.64
2022-09-17T05:19:01.793Z,95.53
2022-09-17T05:20:01.784Z,95.53
2022-09-17T05:21:01.895Z,95.84
2022-09-17T05:22:01.766Z,96.15
2022-09-17T05:23:01.744Z,95.74
2022-09-17T05:24:01.734Z,95.64
2022-09-17T05:25:01.717Z,95.64
2022-09-17T05:26:01.709Z,95.43
2022-09-17T05:27:01.718Z,95.53
2022-09-17T05:28:01.679Z,95.48
2022-09-17T05:29:01.821Z,95.37
2022-09-17T05:30:01.661Z,95.17
2022-09-17T05:31:01.737Z,95.48
2022-09-17T05:32:01.626Z,95.37
2022-09-17T05:33:01.608Z,95.58
2022-09-17T05:34:01.601Z,95.78
2022-09-17T05:35:05.432Z,95.58
2022-09-17T05:36:01.579Z,95.37
2022-09-17T05:37:01.731Z,95.58
2022-09-17T05:38:01.565Z,95.99
2022-09-17T05:39:01.537Z,96.41
2022-09-17T05:40:01.615Z,96.36
2022-09-17T05:41:01.512Z,96.56
2022-09-17T05:42:01.500Z,96.05
2022-09-17T05:43:01.484Z,95.12
2022-09-17T05:44:01.473Z,94.09
2022-09-17T05:45:01.459Z,94.40
2022-09-17T05:46:01.445Z,94.81
2022-09-17T05:47:01.474Z,94.30
2022-09-17T05:48:01.415Z,94.09
2022-09-17T05:49:01.405Z,94.09
2022-09-17T05:50:01.399Z,93.88
2022-09-17T05:51:01.381Z,93.58
2022-09-17T05:52:01.367Z,93.68
2022-09-17T05:53:01.479Z,94.09
2022-09-17T05:54:01.342Z,93.99
2022-09-17T05:55:01.341Z,94.20
2022-09-17T05:56:01.315Z,93.99
2022-09-17T05:57:01.307Z,93.99
2022-09-17T05:58:01.289Z,93.99
2022-09-17T05:59:01.378Z,93.88
2022-09-17T06:00:01.267Z,93.99
2022-09-17T06:01:01.257Z,94.09
2022-09-17T06:02:01.301Z,94.51
2022-09-17T06:03:01.343Z,94.40
2022-09-17T06:04:01.222Z,93.99
2022-09-17T06:05:01.205Z,93.79
2022-09-17T06:06:01.193Z,93.68
2022-09-17T06:07:01.177Z,93.64
2022-09-17T06:08:01.167Z,93.43
2022-09-17T06:09:01.273Z,93.54
2022-09-17T06:10:01.139Z,92.77
2022-09-17T06:11:02.608Z,91.85
2022-09-17T06:12:01.117Z,92.32
2022-09-17T06:13:01.102Z,92.32
2022-09-17T06:14:01.086Z,92.01
2022-09-17T06:15:01.079Z,92.21
2022-09-17T06:16:01.128Z,90.73
2022-09-17T06:17:01.051Z,89.60
2022-09-17T06:18:01.035Z,89.21
2022-09-17T06:19:01.020Z,88.04
2022-09-17T06:20:01.009Z,86.90
2022-09-17T06:21:01.003Z,84.60
2022-09-17T06:22:00.987Z,84.03
2022-09-17T06:23:00.970Z,85.19
2022-09-17T06:24:00.967Z,85.85
2022-09-17T06:25:01.068Z,86.85
2022-09-17T06:26:00.932Z,87.37
2022-09-17T06:27:00.921Z,88.02
2022-09-17T06:28:00.906Z,88.43
2022-09-17T06:29:00.998Z,88.70
2022-09-17T06:30:00.879Z,87.16
2022-09-17T06:31:00.913Z,88.02
2022-09-17T06:32:00.854Z,89.15
2022-09-17T06:33:00.845Z,89.19
2022-09-17T06:34:01.812Z,89.50
2022-09-17T06:35:00.819Z,89.50
2022-09-17T06:36:00.808Z,90.06
2022-09-17T06:37:00.794Z,89.54
2022-09-17T06:38:00.781Z,89.34
2022-09-17T06:39:00.764Z,89.85
2022-09-17T06:40:00.803Z,89.89
2022-09-17T06:41:00.854Z,90.41
2022-09-17T06:42:00.723Z,90.81
2022-09-17T06:43:00.716Z,90.20
2022-09-17T06:44:00.763Z,90.41
2022-09-17T06:45:05.497Z,90.51
2022-09-17T06:46:01.725Z,90.96
2022-09-17T06:47:00.927Z,91.38
2022-09-17T06:48:00.649Z,92.10
2022-09-17T06:49:00.638Z,92.30
2022-09-17T06:50:00.626Z,92.30
2022-09-17T06:51:00.614Z,92.16
2022-09-17T06:52:00.605Z,91.74
2022-09-17T06:53:00.591Z,91.64
2022-09-17T06:54:00.582Z,91.74
2022-09-17T06:55:00.566Z,90.47
2022-09-17T06:56:05.898Z,90.36
2022-09-17T06:57:00.659Z,89.75
2022-09-17T06:58:00.533Z,89.54
2022-09-17T06:59:00.540Z,90.06
2022-09-17T07:00:00.501Z,90.09
2022-09-17T07:01:00.582Z,90.41
2022-09-17T07:02:00.531Z,89.89
2022-09-17T07:03:00.462Z,90.30
2022-09-17T07:04:00.453Z,90.20
2022-09-17T07:05:00.439Z,90.20
2022-09-17T07:06:00.426Z,90.72
2022-09-17T07:07:00.411Z,91.06
2022-09-17T07:08:00.398Z,91.27
2022-09-17T07:09:00.399Z,91.38
2022-09-17T07:10:00.379Z,91.68
2022-09-17T07:11:00.364Z,91.58
2022-09-17T07:12:00.358Z,91.78
2022-09-17T07:13:00.456Z,92.61
2022-09-17T07:14:00.426Z,92.25
2022-09-17T07:15:00.308Z,91.74
2022-09-17T07:16:00.384Z,91.44
2022-09-17T07:17:00.286Z,90.41
2022-09-17T07:18:00.276Z,91.23
2022-09-17T07:19:00.268Z,91.44
2022-09-17T07:20:00.275Z,91.13
2022-09-17T07:21:00.237Z,90.92
2022-09-17T07:22:00.221Z,91.64
2022-09-17T07:23:00.210Z,91.02
2022-09-17T07:24:00.199Z,90.72
2022-09-17T07:25:00.204Z,88.96
2022-09-17T07:26:00.169Z,89.38
2022-09-17T07:27:00.162Z,90.41
2022-09-17T07:28:00.143Z,90.09
2022-09-17T07:29:00.313Z,90.00
2022-09-17T07:30:00.153Z,89.34
2022-09-17T07:31:00.198Z,89.95
2022-09-17T07:32:00.101Z,89.60
2022-09-17T07:33:00.081Z,88.06
2022-09-17T07:34:00.068Z,87.51
2022-09-17T07:35:00.070Z,87.30
2022-09-17T07:36:00.043Z,87.20
2022-09-17T07:37:00.035Z,87.30
2022-09-17T07:38:00.019Z,86.38
2022-09-17T07:39:00.019Z,85.76
2022-09-17T07:40:00.061Z,86.27
2022-09-17T07:40:59.979Z,86.00
2022-09-17T07:41:59.966Z,86.83
2022-09-17T07:42:59.957Z,86.99
2022-09-17T07:44:00.084Z,86.79
2022-09-17T07:45:02.195Z,85.86
2022-09-17T07:45:59.914Z,85.82
2022-09-17T07:46:59.990Z,85.62
2022-09-17T07:47:59.892Z,84.80
2022-09-17T07:48:59.885Z,85.11
2022-09-17T07:49:59.872Z,85.52
2022-09-17T07:50:59.851Z,85.06
2022-09-17T07:51:59.842Z,85.27
2022-09-17T07:52:59.829Z,85.27
2022-09-17T07:53:59.818Z,83.32
2022-09-17T07:54:59.802Z,82.91
2022-09-17T07:55:59.788Z,82.46
2022-09-17T07:56:59.779Z,82.46
2022-09-17T07:57:59.767Z,82.22
2022-09-17T07:58:59.877Z,81.81
2022-09-17T07:59:59.749Z,81.60
2022-09-17T08:00:59.855Z,81.46
2022-09-17T08:02:00.030Z,81.26
2022-09-17T08:02:59.808Z,80.23
2022-09-17T08:03:59.699Z,80.27
2022-09-17T08:04:59.674Z,79.75
2022-09-17T08:05:59.663Z,80.00
2022-09-17T08:06:59.650Z,79.18
2022-09-17T08:07:59.636Z,80.21
2022-09-17T08:08:59.621Z,80.10
2022-09-17T08:09:59.612Z,80.10
2022-09-17T08:10:59.607Z,78.87
2022-09-17T08:11:59.600Z,78.87
2022-09-17T08:12:59.573Z,78.46
2022-09-17T08:13:59.604Z,79.28
2022-09-17T08:14:59.547Z,79.24
2022-09-17T08:15:59.590Z,77.36
2022-09-17T08:16:59.659Z,77.47
2022-09-17T08:17:59.519Z,78.25
2022-09-17T08:18:59.497Z,78.05
2022-09-17T08:19:59.482Z,77.36
2022-09-17T08:20:59.481Z,76.95
2022-09-17T08:21:59.457Z,77.36
2022-09-17T08:22:59.448Z,79.00
2022-09-17T08:23:59.634Z,79.00
2022-09-17T08:24:59.420Z,78.80
2022-09-17T08:25:59.404Z,78.90
2022-09-17T08:26:59.393Z,78.80
2022-09-17T08:27:59.382Z,80.13
2022-09-17T08:28:59.492Z,79.11
2022-09-17T08:29:59.353Z,78.80
2022-09-17T08:30:59.359Z,77.53
2022-09-17T08:31:59.324Z,77.16
2022-09-17T08:32:59.445Z,77.33
2022-09-17T08:33:59.302Z,77.06
2022-09-17T08:34:59.288Z,77.36
2022-09-17T08:35:59.279Z,78.05
2022-09-17T08:36:59.269Z,76.85
2022-09-17T08:37:59.252Z,77.16
2022-09-17T08:38:59.233Z,77.87
2022-09-17T08:39:59.267Z,79.27
2022-09-17T08:40:59.212Z,77.12
2022-09-17T08:41:59.198Z,76.61
2022-09-17T08:42:59.185Z,76.85
2022-09-17T08:43:59.218Z,77.16
2022-09-17T08:45:00.785Z,77.98
2022-09-17T08:45:59.150Z,76.89
2022-09-17T08:46:59.196Z,77.36
2022-09-17T08:47:59.117Z,78.49
2022-09-17T08:48:59.239Z,79.27
2022-09-17T08:49:59.095Z,77.94
2022-09-17T08:51:04.314Z,76.92
2022-09-17T08:52:00.103Z,76.72
2022-09-17T08:52:59.054Z,76.81
2022-09-17T08:53:59.049Z,76.10
2022-09-17T08:54:59.037Z,76.72
2022-09-17T08:55:59.021Z,76.61
2022-09-17T08:56:59.006Z,77.23
2022-09-17T08:57:58.989Z,76.81
2022-09-17T08:58:59.012Z,76.20
2022-09-17T08:59:58.964Z,76.20
2022-09-17T09:00:58.952Z,77.53
2022-09-17T09:01:59.106Z,77.09
2022-09-17T09:02:58.993Z,75.96
2022-09-17T09:03:58.916Z,76.17
2022-09-17T09:04:59.028Z,75.76
2022-09-17T09:05:58.881Z,75.55
2022-09-17T09:06:58.875Z,76.27
2022-09-17T09:07:58.866Z,75.65
2022-09-17T09:08:58.850Z,76.06
2022-09-17T09:09:58.846Z,75.24
2022-09-17T09:10:58.821Z,76.37
2022-09-17T09:11:58.810Z,75.99
2022-09-17T09:12:58.796Z,76.92
2022-09-17T09:13:58.860Z,76.24
2022-09-17T09:14:58.772Z,76.85
2022-09-17T09:15:58.801Z,77.36
2022-09-17T09:16:58.767Z,77.91
2022-09-17T09:17:58.733Z,77.50
2022-09-17T09:18:58.725Z,77.61
2022-09-17T09:19:58.712Z,77.81
2022-09-17T09:20:58.814Z,77.91
2022-09-17T09:21:58.708Z,77.77
2022-09-17T09:22:58.665Z,77.36
2022-09-17T09:23:58.761Z,77.67
2022-09-17T09:24:58.640Z,77.73
2022-09-17T09:25:58.634Z,77.53
2022-09-17T09:26:58.915Z,77.43
2022-09-17T09:27:58.613Z,77.33
2022-09-17T09:28:58.650Z,77.73
2022-09-17T09:29:58.580Z,77.80
2022-09-17T09:30:58.677Z,77.73
2022-09-17T09:31:58.549Z,78.15
2022-09-17T09:32:58.541Z,77.33
2022-09-17T09:33:58.529Z,77.33
2022-09-17T09:34:58.518Z,77.87
2022-09-17T09:35:58.500Z,78.08
2022-09-17T09:36:58.615Z,78.70
2022-09-17T09:37:58.480Z,79.41
2022-09-17T09:38:58.464Z,79.52
2022-09-17T09:39:58.495Z,80.13
2022-09-17T09:40:58.439Z,80.54
2022-09-17T09:41:58.425Z,80.91
2022-09-17T09:42:58.413Z,80.40
2022-09-17T09:44:05.854Z,79.48
2022-09-17T09:45:02.850Z,79.99
2022-09-17T09:45:58.378Z,80.81
2022-09-17T09:46:58.406Z,80.91
2022-09-17T09:47:58.362Z,80.64
2022-09-17T09:48:58.333Z,81.77
2022-09-17T09:49:58.317Z,82.59
2022-09-17T09:51:06.968Z,83.82
2022-09-17T09:51:59.329Z,83.65
2022-09-17T09:52:58.407Z,83.96
2022-09-17T09:53:58.279Z,84.58
2022-09-17T09:54:58.270Z,84.68
2022-09-17T09:55:58.242Z,85.09
2022-09-17T09:56:58.226Z,84.99
2022-09-17T09:57:58.230Z,85.91
2022-09-17T09:58:58.261Z,85.80
2022-09-17T09:59:58.188Z,85.39
2022-09-17T10:00:58.186Z,84.99
2022-09-17T10:01:58.291Z,85.13
2022-09-17T10:02:58.221Z,86.05
2022-09-17T10:03:58.144Z,86.05
2022-09-17T10:04:58.127Z,86.05
2022-09-17T10:05:58.111Z,86.98
2022-09-17T10:06:58.107Z,86.98
2022-09-17T10:07:58.091Z,87.79
2022-09-17T10:08:58.191Z,86.91
2022-09-17T10:09:58.060Z,87.43
2022-09-17T10:10:58.050Z,87.53
2022-09-17T10:11:58.038Z,89.21
2022-09-17T10:12:58.026Z,89.42
2022-09-17T10:13:58.040Z,88.90
2022-09-17T10:14:58.003Z,88.90
2022-09-17T10:15:58.051Z,89.52
2022-09-17T10:16:57.974Z,89.78
2022-09-17T10:17:57.960Z,89.78
2022-09-17T10:18:57.949Z,90.61
2022-09-17T10:19:57.932Z,90.91
2022-09-17T10:20:57.919Z,88.66
2022-09-17T10:21:57.910Z,88.96
2022-09-17T10:22:57.897Z,88.66
2022-09-17T10:23:57.880Z,88.86
2022-09-17T10:24:57.988Z,89.48
2022-09-17T10:25:57.855Z,89.27
2022-09-17T10:26:57.843Z,89.75
2022-09-17T10:27:57.830Z,89.84
2022-09-17T10:28:57.905Z,89.43
2022-09-17T10:29:57.802Z,89.81
2022-09-17T10:30:57.887Z,89.60
2022-09-17T10:31:57.865Z,88.74
2022-09-17T10:32:57.766Z,88.94
2022-09-17T10:33:57.749Z,87.30
2022-09-17T10:34:57.740Z,86.79
2022-09-17T10:35:57.723Z,86.22
2022-09-17T10:36:57.710Z,86.28
2022-09-17T10:37:57.712Z,85.87
2022-09-17T10:38:57.685Z,86.69
2022-09-17T10:39:57.722Z,85.66
2022-09-17T10:40:57.786Z,86.48
2022-09-17T10:41:57.648Z,86.18
2022-09-17T10:42:57.633Z,85.56
2022-09-17T10:43:57.644Z,84.74
2022-09-17T10:44:57.610Z,83.72
2022-09-17T10:45:57.591Z,83.51
2022-09-17T10:46:57.601Z,82.96
2022-09-17T10:47:57.572Z,83.88
2022-09-17T10:48:57.565Z,83.64
2022-09-17T10:49:57.541Z,84.25
2022-09-17T10:50:57.532Z,83.54
2022-09-17T10:51:57.524Z,82.51
2022-09-17T10:52:57.508Z,81.38
2022-09-17T10:53:57.501Z,81.18
2022-09-17T10:54:57.485Z,81.29
2022-09-17T10:55:57.467Z,82.00
2022-09-17T10:56:57.569Z,82.48
2022-09-17T10:57:57.442Z,81.65
2022-09-17T10:58:57.573Z,82.27
2022-09-17T10:59:57.416Z,80.74
2022-09-17T11:00:57.401Z,80.22
2022-09-17T11:01:57.500Z,81.04
2022-09-17T11:02:57.458Z,79.82
2022-09-17T11:03:57.365Z,79.91
2022-09-17T11:04:57.349Z,81.15
2022-09-17T11:05:57.336Z,78.69
2022-09-17T11:06:57.328Z,79.50
2022-09-17T11:07:57.315Z,79.41
2022-09-17T11:08:57.304Z,78.38
2022-09-17T11:09:57.286Z,78.49
2022-09-17T11:10:57.267Z,79.30
2022-09-17T11:11:57.259Z,79.10
2022-09-17T11:12:57.371Z,79.13
2022-09-17T11:13:57.307Z,79.75
2022-09-17T11:14:57.218Z,79.54
2022-09-17T11:15:57.260Z,80.05
2022-09-17T11:16:57.193Z,81.08
2022-09-17T11:17:57.189Z,80.94
2022-09-17T11:18:57.168Z,80.83
2022-09-17T11:19:57.153Z,80.53
2022-09-17T11:20:57.144Z,81.01
2022-09-17T11:21:57.130Z,78.04
2022-09-17T11:22:57.120Z,77.70
2022-09-17T11:23:57.115Z,77.08
2022-09-17T11:24:57.098Z,77.80
2022-09-17T11:26:00.421Z,76.81
2022-09-17T11:26:57.068Z,77.42
2022-09-17T11:27:57.055Z,77.32
2022-09-17T11:28:57.158Z,77.22
2022-09-17T11:29:57.026Z,77.12
2022-09-17T11:30:57.132Z,77.63
2022-09-17T11:31:57.101Z,79.06
2022-09-17T11:32:56.990Z,77.53
2022-09-17T11:33:56.976Z,78.14
2022-09-17T11:34:56.961Z,79.06
2022-09-17T11:35:56.949Z,77.73
2022-09-17T11:36:56.941Z,76.61
2022-09-17T11:37:59.919Z,77.01
2022-09-17T11:38:56.912Z,76.64
2022-09-17T11:39:56.973Z,76.64
2022-09-17T11:40:56.882Z,76.23
2022-09-17T11:41:56.870Z,77.05
2022-09-17T11:42:56.860Z,77.15
2022-09-17T11:43:56.859Z,76.95
2022-09-17T11:44:56.955Z,77.94
2022-09-17T11:45:56.826Z,77.22
2022-09-17T11:46:56.895Z,77.63
2022-09-17T11:47:56.796Z,76.09
2022-09-17T11:48:56.785Z,76.91
2022-09-17T11:49:56.765Z,76.57
2022-09-17T11:50:56.764Z,74.93
2022-09-17T11:51:56.742Z,75.38
2022-09-17T11:52:56.736Z,75.68
2022-09-17T11:53:56.718Z,75.79
2022-09-17T11:54:56.705Z,75.75
2022-09-17T11:55:56.698Z,76.16
2022-09-17T11:56:56.675Z,75.34
2022-09-17T11:57:56.678Z,74.93
2022-09-17T11:58:56.647Z,75.96
2022-09-17T11:59:56.635Z,75.65
2022-09-17T12:00:56.754Z,75.34
2022-09-17T12:01:56.721Z,75.04
2022-09-17T12:02:56.651Z,75.04
2022-09-17T12:03:56.588Z,75.75
2022-09-17T12:04:56.577Z,75.65
2022-09-17T12:05:56.555Z,74.52
2022-09-17T12:06:56.549Z,75.04
2022-09-17T12:07:56.540Z,75.48
2022-09-17T12:08:56.525Z,76.81
2022-09-17T12:09:56.509Z,76.71
2022-09-17T12:10:56.502Z,78.14
2022-09-17T12:11:56.482Z,80.39
2022-09-17T12:12:56.470Z,80.08
2022-09-17T12:13:56.656Z,79.57
2022-09-17T12:14:56.451Z,79.98
2022-09-17T12:15:56.460Z,79.78
2022-09-17T12:16:56.544Z,80.02
2022-09-17T12:18:20.274Z,80.33
2022-09-17T12:18:57.427Z,80.63
2022-09-17T12:19:56.378Z,79.71
2022-09-17T12:20:56.371Z,80.63
2022-09-17T12:21:56.358Z,79.91
2022-09-17T12:22:56.365Z,80.63
2022-09-17T12:23:56.333Z,80.33
2022-09-17T12:24:56.312Z,81.15
2022-09-17T12:25:56.303Z,80.53
2022-09-17T12:26:56.285Z,80.63
2022-09-17T12:27:56.279Z,80.74
2022-09-17T12:28:56.256Z,81.76
2022-09-17T12:30:00.277Z,81.35
2022-09-17T12:30:56.336Z,82.27
2022-09-17T12:31:56.222Z,83.50
2022-09-17T12:32:56.332Z,82.68
2022-09-17T12:33:56.195Z,80.83
2022-09-17T12:34:56.186Z,82.07
2022-09-17T12:36:05.327Z,82.07
2022-09-17T12:36:57.193Z,81.15
2022-09-17T12:37:56.147Z,81.51
2022-09-17T12:39:00.628Z,79.98
2022-09-17T12:39:57.248Z,79.37
2022-09-17T12:40:56.103Z,79.78
2022-09-17T12:41:56.091Z,80.29
2022-09-17T12:42:56.081Z,79.27
2022-09-17T12:43:56.070Z,79.06
2022-09-17T12:44:56.058Z,78.24
2022-09-17T12:45:56.036Z,78.75
2022-09-17T12:46:56.101Z,78.31
2022-09-17T12:47:56.013Z,77.49
2022-09-17T12:48:56.133Z,78.00
2022-09-17T12:49:56.004Z,77.08
2022-09-17T12:50:55.975Z,76.26
2022-09-17T12:51:55.971Z,75.14